createdAt,value
2023-04-21T00:02:27.938Z,99920.41
2023-04-21T00:04:57.215Z,99926.41
2023-04-21T00:07:25.672Z,99922.00
2023-04-21T00:09:53.955Z,99922.63
2023-04-21T00:12:22.261Z,99918.03
2023-04-21T00:14:51.960Z,99913.47
2023-04-21T00:17:20.896Z,99911.13
2023-04-21T00:19:49.283Z,99908.91
2023-04-21T00:22:18.408Z,99913.66
2023-04-21T00:24:46.880Z,99911.13
2023-04-21T00:27:16.209Z,99909.56
2023-04-21T00:29:45.306Z,99901.81
2023-04-21T00:32:15.023Z,99909.53
2023-04-21T00:34:43.368Z,99907.50
2023-04-21T00:37:11.627Z,99910.16
2023-04-21T00:39:39.911Z,99904.50
2023-04-21T00:42:18.430Z,99897.91
2023-04-21T00:44:46.740Z,99901.97
2023-04-21T00:47:16.458Z,99893.16
2023-04-21T00:49:44.898Z,99899.00
2023-04-21T00:52:13.778Z,99898.22
2023-04-21T00:54:42.204Z,99896.00
2023-04-21T00:57:12.176Z,99898.50
2023-04-21T00:59:40.485Z,99899.94
2023-04-21T01:02:08.923Z,99891.44
2023-04-21T01:04:39.781Z,99894.75
2023-04-21T01:07:10.243Z,99884.66
2023-04-21T01:09:38.846Z,99882.63
2023-04-21T01:12:08.876Z,99880.25
2023-04-21T01:14:39.243Z,99875.84
2023-04-21T01:17:08.317Z,99881.03
2023-04-21T01:19:40.668Z,99879.75
2023-04-21T01:22:12.397Z,99877.09
2023-04-21T01:24:41.881Z,99878.50
2023-04-21T01:27:12.116Z,99871.28
2023-04-21T01:29:41.219Z,99870.00
2023-04-21T01:32:11.930Z,99863.06
2023-04-21T01:34:42.149Z,99861.34
2023-04-21T01:37:13.160Z,99870.00
2023-04-21T01:39:42.424Z,99873.44
2023-04-21T01:42:11.122Z,99870.44
2023-04-21T01:44:40.346Z,99879.59
2023-04-21T01:47:08.951Z,99871.53
2023-04-21T01:49:37.297Z,99872.91
2023-04-21T01:52:06.048Z,99867.56
2023-04-21T01:54:36.451Z,99869.78
2023-04-21T01:57:05.695Z,99877.47
2023-04-21T01:59:34.112Z,99869.78
2023-04-21T02:02:02.428Z,99875.28
2023-04-21T02:04:31.053Z,99878.84
2023-04-21T02:06:59.522Z,99877.28
2023-04-21T02:09:27.857Z,99881.84
2023-04-21T02:11:58.496Z,99871.13
2023-04-21T02:14:27.396Z,99870.94
2023-04-21T02:16:56.294Z,99860.25
2023-04-21T02:19:25.337Z,99865.13
2023-04-21T02:21:53.619Z,99857.13
2023-04-21T02:24:22.108Z,99857.63
2023-04-21T02:26:50.850Z,99859.69
2023-04-21T02:29:20.759Z,99860.78
2023-04-21T02:32:00.819Z,99854.81
2023-04-21T02:34:33.861Z,99855.78
2023-04-21T02:37:02.610Z,99850.41
2023-04-21T02:39:31.111Z,99856.41
2023-04-21T02:41:59.792Z,99854.19
2023-04-21T02:44:29.681Z,99853.38
2023-04-21T02:46:57.994Z,99852.56
2023-04-21T02:49:26.620Z,99853.38
2023-04-21T02:51:55.343Z,99849.75
2023-04-21T02:54:23.756Z,99847.22
2023-04-21T02:56:52.053Z,99848.63
2023-04-21T02:59:20.658Z,99845.00
2023-04-21T03:01:50.661Z,99847.06
2023-04-21T03:04:20.035Z,99855.56
2023-04-21T03:06:48.550Z,99851.13
2023-04-21T03:09:17.027Z,99855.09
2023-04-21T03:11:45.380Z,99856.78
2023-04-21T03:14:13.654Z,99855.09
2023-04-21T03:16:42.069Z,99865.28
2023-04-21T03:19:12.091Z,99866.41
2023-04-21T03:21:40.380Z,99872.69
2023-04-21T03:24:10.947Z,99865.09
2023-04-21T03:26:40.723Z,99866.38
2023-04-21T03:29:09.146Z,99870.59
2023-04-21T03:31:37.510Z,99861.34
2023-04-21T03:34:05.863Z,99865.75
2023-04-21T03:36:35.722Z,99862.00
2023-04-21T03:39:20.440Z,99863.41
2023-04-21T03:41:49.906Z,99865.47
2023-04-21T03:44:18.304Z,99855.72
2023-04-21T03:46:46.541Z,99854.28
2023-04-21T03:49:14.904Z,99861.22
2023-04-21T03:51:44.696Z,99853.19
2023-04-21T03:54:13.234Z,99856.84
2023-04-21T03:56:41.506Z,99869.94
2023-04-21T03:59:09.799Z,99870.22
2023-04-21T04:01:38.137Z,99883.16
2023-04-21T04:04:07.176Z,99877.31
2023-04-21T04:06:35.919Z,99877.63
2023-04-21T04:09:05.882Z,99876.41
2023-04-21T04:11:34.196Z,99883.69
2023-04-21T04:14:02.681Z,99886.97
2023-04-21T04:16:31.210Z,99892.53
2023-04-21T04:18:59.614Z,99894.41
2023-04-21T04:21:28.704Z,99890.66
2023-04-21T04:23:57.726Z,99898.03
2023-04-21T04:26:27.803Z,99894.44
2023-04-21T04:28:56.685Z,99897.25
2023-04-21T04:31:25.858Z,99898.53
2023-04-21T04:33:55.298Z,99895.34
2023-04-21T04:36:24.239Z,99890.66
2023-04-21T04:38:53.731Z,99894.41
2023-04-21T04:41:22.841Z,99894.72
2023-04-21T04:43:53.639Z,99893.16
2023-04-21T04:46:22.105Z,99903.22
2023-04-21T04:48:50.621Z,99897.25
2023-04-21T04:51:18.966Z,99896.78
2023-04-21T04:53:47.293Z,99891.28
2023-04-21T04:56:15.681Z,99893.50
2023-04-21T04:58:46.546Z,99888.28
2023-04-21T05:01:17.272Z,99881.00
2023-04-21T05:03:46.847Z,99884.50
2023-04-21T05:06:15.390Z,99893.94
2023-04-21T05:08:43.765Z,99894.28
2023-04-21T05:11:12.254Z,99895.69
2023-04-21T05:13:40.742Z,99892.84
2023-04-21T05:16:11.508Z,99901.19
2023-04-21T05:18:41.326Z,99900.41
2023-04-21T05:21:09.778Z,99899.00
2023-04-21T05:23:38.061Z,99897.09
2023-04-21T05:26:06.516Z,99900.09
2023-04-21T05:28:36.059Z,99900.53
2023-04-21T05:31:04.567Z,99908.13
2023-04-21T05:33:33.074Z,99906.06
2023-04-21T05:36:02.983Z,99907.50
2023-04-21T05:38:31.305Z,99907.34
2023-04-21T05:40:59.775Z,99903.56
2023-04-21T05:43:28.208Z,99909.38
2023-04-21T05:45:56.487Z,99907.34
2023-04-21T05:48:25.080Z,99901.66
2023-04-21T05:50:53.428Z,99896.00
2023-04-21T05:53:23.777Z,99887.63
2023-04-21T05:55:52.112Z,99893.47
2023-04-21T05:58:20.557Z,99896.16
2023-04-21T06:00:49.240Z,99897.22
2023-04-21T06:03:17.825Z,99901.78
2023-04-21T06:05:47.489Z,99902.09
2023-04-21T06:08:15.817Z,99903.69
2023-04-21T06:10:45.514Z,99909.06
2023-04-21T06:13:13.986Z,99912.53
2023-04-21T06:15:42.444Z,99910.47
2023-04-21T06:18:11.070Z,99919.16
2023-04-21T06:20:40.963Z,99926.56
2023-04-21T06:23:09.629Z,99932.69
2023-04-21T06:25:38.069Z,99930.31
2023-04-21T06:28:07.761Z,99939.28
2023-04-21T06:30:36.082Z,99941.13
2023-04-21T06:33:04.658Z,99941.47
2023-04-21T06:35:33.136Z,99950.75
2023-04-21T06:38:01.643Z,99948.22
2023-04-21T06:40:29.937Z,99945.19
2023-04-21T06:42:59.223Z,99947.75
2023-04-21T06:45:28.998Z,99951.16
2023-04-21T06:47:57.284Z,99947.72
2023-04-21T06:50:25.640Z,99953.41
2023-04-21T06:52:53.952Z,99948.03
2023-04-21T06:55:22.166Z,99959.94
2023-04-21T06:57:50.531Z,99962.63
2023-04-21T07:00:20.217Z,99962.72
2023-04-21T07:02:50.035Z,99957.44
2023-04-21T07:05:18.559Z,99969.06
2023-04-21T07:07:46.806Z,99960.88
2023-04-21T07:10:19.370Z,99960.56
2023-04-21T07:12:47.803Z,99952.91
2023-04-21T07:15:16.083Z,99952.91
2023-04-21T07:17:44.571Z,99963.19
2023-04-21T07:20:14.629Z,99960.94
2023-04-21T07:22:42.950Z,99959.13
2023-04-21T07:25:12.665Z,99948.13
2023-04-21T07:27:41.347Z,99948.00
2023-04-21T07:30:10.764Z,99941.94
2023-04-21T07:32:39.218Z,99940.34
2023-04-21T07:35:08.478Z,99944.25
2023-04-21T07:37:38.259Z,99937.66
2023-04-21T07:40:07.641Z,99934.53
2023-04-21T07:42:35.958Z,99928.88
2023-04-21T07:45:04.295Z,99930.00
2023-04-21T07:47:33.031Z,99942.59
2023-04-21T07:50:01.408Z,99913.00
2023-04-21T07:52:29.622Z,99916.00
2023-04-21T07:54:59.250Z,99925.13
2023-04-21T07:57:27.485Z,99919.94
2023-04-21T07:59:55.849Z,99924.97
2023-04-21T08:02:24.181Z,99933.97
2023-04-21T08:04:52.480Z,99937.38
2023-04-21T08:07:20.741Z,99939.69
2023-04-21T08:09:48.932Z,99946.59
2023-04-21T08:12:19.124Z,99944.88
2023-04-21T08:14:47.443Z,99957.63
2023-04-21T08:17:15.893Z,99960.31
2023-04-21T08:19:44.181Z,99957.00
2023-04-21T08:22:12.683Z,99966.38
2023-04-21T08:24:40.997Z,99954.03
2023-04-21T08:27:09.281Z,99964.06
2023-04-21T08:29:38.977Z,99956.53
2023-04-21T08:32:07.646Z,99956.59
2023-04-21T08:34:36.090Z,99959.38
2023-04-21T08:37:04.349Z,99961.44
2023-04-21T08:39:32.656Z,99955.66
2023-04-21T08:42:02.276Z,99952.25
2023-04-21T08:44:30.574Z,99947.81
2023-04-21T08:47:01.460Z,99952.41
2023-04-21T08:49:31.428Z,99949.81
2023-04-21T08:52:01.728Z,99954.53
2023-04-21T08:54:30.310Z,99947.50
2023-04-21T08:57:07.989Z,99946.41
2023-04-21T08:59:42.786Z,99942.59
2023-04-21T09:02:15.241Z,99954.88
2023-04-21T09:04:45.383Z,99947.59
2023-04-21T09:07:31.007Z,99942.59
2023-04-21T09:10:00.479Z,99944.09
2023-04-21T09:12:29.214Z,99947.25
2023-04-21T09:14:59.131Z,99950.28
2023-04-21T09:17:34.022Z,99943.09
2023-04-21T09:20:16.170Z,99941.09
2023-04-21T09:22:44.878Z,99943.91
2023-04-21T09:25:17.590Z,99947.31
2023-04-21T09:27:46.782Z,99942.69
2023-04-21T09:30:19.876Z,99939.25
2023-04-21T09:32:49.671Z,99934.31
2023-04-21T09:35:18.026Z,99934.75
2023-04-21T09:37:46.454Z,99936.59
2023-04-21T09:40:16.214Z,99934.16
2023-04-21T09:42:45.021Z,99941.25
2023-04-21T09:47:52.600Z,99934.97
2023-04-21T09:50:51.167Z,99935.41
2023-04-21T09:53:15.404Z,99934.31
2023-04-21T09:55:48.055Z,99928.44
2023-04-21T09:58:20.256Z,99926.56
2023-04-21T10:00:48.919Z,99929.59
2023-04-21T10:03:21.040Z,99931.75
2023-04-21T10:05:49.492Z,99922.09
2023-04-21T10:08:18.978Z,99922.78
2023-04-21T10:10:47.839Z,99926.59
2023-04-21T10:13:18.806Z,99923.13
2023-04-21T10:15:47.272Z,99923.47
2023-04-21T10:18:20.163Z,99928.63
2023-04-21T10:20:55.833Z,99919.84
2023-04-21T10:23:37.493Z,99918.50
2023-04-21T10:26:12.952Z,99916.34
2023-04-21T10:28:46.116Z,99918.28
2023-04-21T10:31:27.208Z,99923.31
2023-04-21T10:34:15.990Z,99930.81
2023-04-21T10:37:05.739Z,99923.97
2023-04-21T10:39:36.702Z,99929.91
2023-04-21T10:42:24.722Z,99920.84
2023-04-21T10:44:54.789Z,99918.03
2023-04-21T10:47:34.903Z,99917.13
2023-04-21T10:50:15.017Z,99920.13
2023-04-21T10:52:47.082Z,99917.72
2023-04-21T10:55:16.243Z,99917.47
2023-04-21T10:57:46.648Z,99928.09
2023-04-21T11:00:20.096Z,99927.59
2023-04-21T11:02:59.756Z,99923.69
2023-04-21T11:05:38.907Z,99924.03
2023-04-21T11:08:15.350Z,99920.84
2023-04-21T11:10:55.015Z,99929.13
2023-04-21T11:13:24.610Z,99929.75
2023-04-21T11:16:04.558Z,99925.72
2023-04-21T11:18:39.737Z,99921.69
2023-04-21T11:21:18.310Z,99920.47
2023-04-21T11:23:51.481Z,99917.97
2023-04-21T11:26:21.122Z,99913.03
2023-04-21T11:28:51.892Z,99915.81
2023-04-21T11:31:20.365Z,99923.97
2023-04-21T11:33:48.632Z,99908.44
2023-04-21T11:36:18.329Z,99903.09
2023-04-21T11:38:46.608Z,99902.50
2023-04-21T11:41:23.710Z,99896.66
2023-04-21T11:43:52.225Z,99896.50
2023-04-21T11:46:25.921Z,99907.41
2023-04-21T11:49:04.523Z,99904.88
2023-04-21T11:51:39.058Z,99907.09
2023-04-21T11:54:08.616Z,99906.69
2023-04-21T11:56:38.434Z,99906.19
2023-04-21T11:59:10.953Z,99911.94
2023-04-21T12:01:44.801Z,99912.50
2023-04-21T12:04:17.427Z,99903.88
2023-04-21T12:06:48.159Z,99910.59
2023-04-21T12:09:21.174Z,99903.66
2023-04-21T12:11:51.221Z,99900.03
2023-04-21T12:14:20.489Z,99896.28
2023-04-21T12:16:50.542Z,99911.78
2023-04-21T12:19:39.666Z,99902.44
2023-04-21T12:22:10.946Z,99902.13
2023-04-21T12:24:39.717Z,99893.34
2023-04-21T12:27:08.729Z,99905.81
2023-04-21T12:29:37.990Z,99897.09
2023-04-21T12:32:06.623Z,99891.78
2023-04-21T12:34:35.242Z,99901.09
2023-04-21T12:37:04.193Z,99892.88
2023-04-21T12:39:34.390Z,99891.03
2023-04-21T12:42:02.966Z,99887.13
2023-04-21T12:44:31.431Z,99888.44
2023-04-21T12:46:59.763Z,99887.00
2023-04-21T12:49:28.301Z,99886.31
2023-04-21T12:51:56.893Z,99890.81
2023-04-21T12:54:25.088Z,99887.56
2023-04-21T12:56:55.456Z,99887.66
2023-04-21T12:59:23.755Z,99878.69
2023-04-21T13:01:52.346Z,99887.53
2023-04-21T13:04:20.901Z,99858.66
2023-04-21T13:06:49.398Z,99877.91
2023-04-21T13:09:18.300Z,99892.59
2023-04-21T13:11:46.936Z,99891.81
2023-04-21T13:14:16.988Z,99899.97
2023-04-21T13:16:45.588Z,99911.09
2023-04-21T13:19:13.937Z,99892.69
2023-04-21T13:21:42.474Z,99893.91
2023-04-21T13:24:14.283Z,99910.88
2023-04-21T13:26:43.121Z,99904.16
2023-04-21T13:29:11.548Z,99901.84
2023-04-21T13:31:41.534Z,99903.31
2023-04-21T13:34:09.896Z,99912.38
2023-04-21T13:36:38.209Z,99932.94
2023-04-21T13:39:10.421Z,99919.38
2023-04-21T13:41:39.998Z,99917.34
2023-04-21T13:44:08.227Z,99921.63
2023-04-21T13:46:36.549Z,99918.31
2023-04-21T13:49:06.836Z,99929.03
2023-04-21T13:51:35.776Z,99931.97
2023-04-21T13:54:04.028Z,99917.69
2023-04-21T13:56:32.482Z,99923.53
2023-04-21T13:59:00.890Z,99929.59
2023-04-21T14:01:30.417Z,99931.44
2023-04-21T14:03:59.027Z,99934.66
2023-04-21T14:06:28.766Z,99937.81
2023-04-21T14:08:57.171Z,99928.50
2023-04-21T14:11:25.528Z,99935.09
2023-04-21T14:14:08.387Z,99948.31
2023-04-21T14:16:37.847Z,99929.59
2023-04-21T14:19:06.237Z,99926.44
2023-04-21T14:21:36.049Z,99938.69
2023-04-21T14:24:04.401Z,99939.28
2023-04-21T14:26:32.927Z,99952.66
2023-04-21T14:29:01.697Z,99941.56
2023-04-21T14:31:30.083Z,99943.59
2023-04-21T14:33:59.496Z,99952.34
2023-04-21T14:36:28.129Z,99950.31
2023-04-21T14:38:57.922Z,99960.06
2023-04-21T14:41:26.258Z,99963.13
2023-04-21T14:43:56.703Z,99959.09
2023-04-21T14:46:25.307Z,99952.59
2023-04-21T14:48:54.547Z,99962.66
2023-04-21T14:51:22.889Z,99960.97
2023-04-21T14:53:51.290Z,99957.47
2023-04-21T14:56:21.263Z,99963.06
2023-04-21T14:58:49.954Z,99971.38
2023-04-21T15:01:18.495Z,99956.56
2023-04-21T15:03:46.926Z,99961.78
2023-04-21T15:06:16.255Z,99970.25
2023-04-21T15:08:44.635Z,99971.03
2023-04-21T15:11:13.178Z,99969.16
2023-04-21T15:13:42.944Z,99966.50
2023-04-21T15:16:11.209Z,99966.72
2023-04-21T15:18:39.612Z,99969.66
2023-04-21T15:21:07.884Z,99966.38
2023-04-21T15:23:36.391Z,99965.06
2023-04-21T15:26:04.949Z,99964.97
2023-04-21T15:28:33.843Z,99949.03
2023-04-21T15:31:03.858Z,99952.84
2023-04-21T15:33:32.212Z,99946.09
2023-04-21T15:36:00.478Z,99947.91
2023-04-21T15:38:28.799Z,99948.72
2023-04-21T15:41:01.109Z,99944.09
2023-04-21T15:43:30.492Z,99954.09
2023-04-21T15:45:58.842Z,99950.28
2023-04-21T15:48:28.622Z,99944.69
2023-04-21T15:50:57.917Z,99948.38
2023-04-21T15:53:26.310Z,99939.84
2023-04-21T15:55:54.546Z,99946.13
2023-04-21T15:58:22.840Z,99944.91
2023-04-21T16:00:51.222Z,99946.56
2023-04-21T16:03:19.899Z,99943.00
2023-04-21T16:05:49.823Z,99946.31
2023-04-21T16:08:18.114Z,99947.78
2023-04-21T16:10:46.865Z,99959.44
2023-04-21T16:13:15.259Z,99951.03
2023-04-21T16:15:43.578Z,99949.56
2023-04-21T16:18:12.030Z,99949.69
2023-04-21T16:20:41.192Z,99954.94
2023-04-21T16:23:10.950Z,99949.66
2023-04-21T16:25:39.327Z,99951.66
2023-04-21T16:28:09.249Z,99952.09
2023-04-21T16:30:38.635Z,99957.09
2023-04-21T16:33:07.160Z,99969.53
2023-04-21T16:35:35.764Z,99960.88
2023-04-21T16:38:04.407Z,99953.91
2023-04-21T16:40:34.777Z,99968.91
2023-04-21T16:43:03.131Z,99968.19
2023-04-21T16:45:31.454Z,99970.81
2023-04-21T16:47:59.893Z,99973.50
2023-04-21T16:50:28.459Z,99974.22
2023-04-21T16:52:56.721Z,99977.09
2023-04-21T16:55:25.125Z,99981.38
2023-04-21T16:57:54.899Z,99981.31
2023-04-21T17:00:23.098Z,99987.03
2023-04-21T17:02:51.567Z,99990.41
2023-04-21T17:05:20.037Z,99987.00
2023-04-21T17:07:48.426Z,99990.66
2023-04-21T17:10:16.712Z,99995.88
2023-04-21T17:12:45.015Z,99999.13
2023-04-21T17:15:14.735Z,100003.56
2023-04-21T17:17:44.892Z,100003.56
2023-04-21T17:20:14.796Z,100016.22
2023-04-21T17:22:43.768Z,100011.50
2023-04-21T17:25:12.750Z,100022.88
2023-04-21T17:27:41.823Z,100015.00
2023-04-21T17:30:11.389Z,100012.97
2023-04-21T17:32:41.698Z,100015.31
2023-04-21T17:35:10.525Z,100021.94
2023-04-21T17:37:38.860Z,100015.19
2023-04-21T17:40:09.746Z,100022.59
2023-04-21T17:42:38.044Z,100021.16
2023-04-21T17:45:08.552Z,100024.78
2023-04-21T17:47:37.961Z,100024.13
2023-04-21T17:50:09.969Z,100028.69
2023-04-21T17:52:38.605Z,100031.53
2023-04-21T17:55:07.778Z,100031.84
2023-04-21T17:57:36.300Z,100032.94
2023-04-21T18:00:08.214Z,100031.53
2023-04-21T18:02:36.719Z,100033.09
2023-04-21T18:05:06.712Z,100027.59
2023-04-21T18:07:36.493Z,100040.81
2023-04-21T18:10:05.387Z,100036.88
2023-04-21T18:12:33.658Z,100034.41
2023-04-21T18:15:02.263Z,100039.25
2023-04-21T18:17:30.680Z,100046.31
2023-04-21T18:20:00.603Z,100054.34
2023-04-21T18:22:28.937Z,100058.91
2023-04-21T18:24:58.733Z,100045.53
2023-04-21T18:27:27.043Z,100045.69
2023-04-21T18:29:55.481Z,100044.28
2023-04-21T18:32:24.414Z,100041.75
2023-04-21T18:34:52.674Z,100049.31
2023-04-21T18:37:21.015Z,100047.91
2023-04-21T18:39:49.435Z,100041.19
2023-04-21T18:42:19.267Z,100046.34
2023-04-21T18:44:48.005Z,100044.66
2023-04-21T18:47:16.708Z,100039.44
2023-04-21T18:49:45.407Z,100038.97
2023-04-21T18:52:14.429Z,100038.16
2023-04-21T18:54:42.694Z,100037.34
2023-04-21T18:57:11.080Z,100032.28
2023-04-21T18:59:40.728Z,100029.91
2023-04-21T19:02:11.131Z,100026.16
2023-04-21T19:04:40.127Z,100033.72
2023-04-21T19:07:10.157Z,100037.66
2023-04-21T19:09:38.686Z,100026.16
2023-04-21T19:12:07.221Z,100036.56
2023-04-21T19:14:46.145Z,100028.34
2023-04-21T19:17:16.866Z,100034.84
2023-04-21T19:19:45.160Z,100031.66
2023-04-21T19:22:13.393Z,100030.88
2023-04-21T19:24:41.639Z,100034.50
2023-04-21T19:27:09.866Z,100038.91
2023-04-21T19:29:38.139Z,100034.28
2023-04-21T19:32:07.141Z,100036.03
2023-04-21T19:34:37.099Z,100033.97
2023-04-21T19:37:05.755Z,100037.13
2023-04-21T19:39:34.195Z,100040.63
2023-04-21T19:42:02.658Z,100039.50
2023-04-21T19:44:31.355Z,100031.66
2023-04-21T19:46:59.745Z,100034.00
2023-04-21T19:49:28.073Z,100035.75
2023-04-21T19:51:57.715Z,100034.31
2023-04-21T19:54:27.005Z,100034.00
2023-04-21T19:56:55.319Z,100033.84
2023-04-21T19:59:23.608Z,100050.56
2023-04-21T20:01:51.962Z,100033.19
2023-04-21T20:04:20.513Z,100046.59
2023-04-21T20:06:48.827Z,100037.94
2023-04-21T20:09:18.597Z,100051.81
2023-04-21T20:11:46.980Z,100046.31
2023-04-21T20:14:15.216Z,100045.84
2023-04-21T20:16:46.116Z,100045.03
2023-04-21T20:19:15.246Z,100053.69
2023-04-21T20:21:43.952Z,100059.22
2023-04-21T20:24:12.300Z,100055.13
2023-04-21T20:26:42.377Z,100057.66
2023-04-21T20:29:10.962Z,100062.22
2023-04-21T20:31:39.592Z,100060.94
2023-04-21T20:34:08.477Z,100066.47
2023-04-21T20:36:37.544Z,100065.84
2023-04-21T20:39:06.583Z,100066.59
2023-04-21T20:41:34.893Z,100057.47
2023-04-21T20:44:05.574Z,100066.06
2023-04-21T20:46:34.143Z,100060.38
2023-04-21T20:49:02.444Z,100067.00
2023-04-21T20:51:30.723Z,100062.75
2023-04-21T20:53:59.043Z,100078.06
2023-04-21T20:56:27.696Z,100075.53
2023-04-21T20:58:56.053Z,100084.22
2023-04-21T21:01:27.075Z,100083.28
2023-04-21T21:03:57.386Z,100093.00
2023-04-21T21:06:25.834Z,100092.69
2023-04-21T21:08:55.357Z,100085.75
2023-04-21T21:11:23.574Z,100092.81
2023-04-21T21:13:52.419Z,100090.16
2023-04-21T21:16:20.893Z,100085.28
2023-04-21T21:18:51.053Z,100098.31
2023-04-21T21:21:19.251Z,100087.41
2023-04-21T21:23:47.541Z,100093.72
2023-04-21T21:26:16.356Z,100098.31
2023-04-21T21:28:44.706Z,100095.75
2023-04-21T21:31:15.914Z,100098.72
2023-04-21T21:33:44.165Z,100099.53
2023-04-21T21:36:14.031Z,100097.06
2023-04-21T21:38:42.562Z,100101.53
2023-04-21T21:41:12.362Z,100102.16
2023-04-21T21:43:40.775Z,100101.53
2023-04-21T21:46:09.778Z,100111.63
2023-04-21T21:48:38.020Z,100109.44
2023-04-21T21:51:06.380Z,100102.97
2023-04-21T21:53:36.070Z,100107.25
2023-04-21T21:56:04.469Z,100106.75
2023-04-21T21:58:32.821Z,100102.81
2023-04-21T22:01:01.173Z,100108.28
2023-04-21T22:03:29.792Z,100118.03
2023-04-21T22:05:58.426Z,100112.09
2023-04-21T22:08:26.905Z,100109.28
2023-04-21T22:10:57.225Z,100111.63
2023-04-21T22:13:25.499Z,100107.56
2023-04-21T22:15:53.845Z,100108.50
2023-04-21T22:18:22.100Z,100108.41
2023-04-21T22:20:50.380Z,100104.78
2023-04-21T22:23:20.444Z,100111.84
2023-04-21T22:25:48.731Z,100110.59
2023-04-21T22:28:18.540Z,100109.13
2023-04-21T22:30:46.864Z,100115.47
2023-04-21T22:33:15.187Z,100112.78
2023-04-21T22:35:43.425Z,100113.59
2023-04-21T22:38:11.730Z,100113.81
2023-04-21T22:40:40.154Z,100114.78
2023-04-21T22:43:08.530Z,100111.00
2023-04-21T22:45:38.323Z,100111.75
2023-04-21T22:48:07.875Z,100116.47
2023-04-21T22:50:36.313Z,100120.59
2023-04-21T22:53:05.211Z,100116.03
2023-04-21T22:55:33.645Z,100112.56
2023-04-21T22:58:01.949Z,100116.16
2023-04-21T23:00:30.331Z,100108.88
2023-04-21T23:03:00.363Z,100105.94
2023-04-21T23:05:28.828Z,100110.34
2023-04-21T23:07:57.025Z,100104.06
2023-04-21T23:10:25.429Z,100105.19
2023-04-21T23:12:53.705Z,100100.81
2023-04-21T23:15:22.342Z,100106.00
2023-04-21T23:17:50.648Z,100105.09
2023-04-21T23:20:20.883Z,100097.53
2023-04-21T23:22:49.171Z,100099.91
2023-04-21T23:25:17.511Z,100098.50
2023-04-21T23:27:45.757Z,100102.13
2023-04-21T23:30:14.623Z,100099.94
2023-04-21T23:32:43.822Z,100101.38
2023-04-21T23:35:12.232Z,100095.03
2023-04-21T23:37:41.861Z,100094.41
2023-04-21T23:40:12.671Z,100097.41
2023-04-21T23:42:41.129Z,100096.16
2023-04-21T23:45:10.528Z,100093.97
2023-04-21T23:47:38.826Z,100098.72
2023-04-21T23:50:08.446Z,100101.41
2023-04-21T23:52:36.853Z,100099.34
2023-04-21T23:55:08.368Z,100100.16
2023-04-21T23:57:37.166Z,100107.56
